sensor_id;sensor_type;location;lat;lon;timestamp;P1;durP1;ratioP1;P2;durP2;ratioP2
13805;SDS011;6974;53.606;9.872;2024-03-08T00:00:15;17.07;;;13.63;;
13805;SDS011;6974;53.606;9.872;2024-03-08T00:02:43;18.73;;;13.67;;
13805;SDS011;6974;53.606;9.872;2024-03-08T00:05:11;20.50;;;15.03;;
13805;SDS011;6974;53.606;9.872;2024-03-08T00:07:39;23.97;;;14.87;;
13805;SDS011;6974;53.606;9.872;2024-03-08T00:10:06;18.43;;;14.43;;
13805;SDS011;6974;53.606;9.872;2024-03-08T00:12:36;19.20;;;14.70;;
13805;SDS011;6974;53.606;9.872;2024-03-08T00:15:05;18.73;;;14.20;;
13805;SDS011;6974;53.606;9.872;2024-03-08T00:17:32;23.63;;;15.03;;
13805;SDS011;6974;53.606;9.872;2024-03-08T00:19:59;19.87;;;14.13;;
13805;SDS011;6974;53.606;9.872;2024-03-08T00:22:28;22.17;;;14.47;;
13805;SDS011;6974;53.606;9.872;2024-03-08T00:24:56;21.87;;;15.17;;
13805;SDS011;6974;53.606;9.872;2024-03-08T00:27:23;19.57;;;14.53;;
13805;SDS011;6974;53.606;9.872;2024-03-08T00:29:49;18.90;;;14.30;;
13805;SDS011;6974;53.606;9.872;2024-03-08T00:32:17;20.47;;;14.23;;
13805;SDS011;6974;53.606;9.872;2024-03-08T00:34:44;21.80;;;14.90;;
13805;SDS011;6974;53.606;9.872;2024-03-08T00:37:11;20.83;;;14.90;;
13805;SDS011;6974;53.606;9.872;2024-03-08T00:39:38;20.63;;;14.37;;
13805;SDS011;6974;53.606;9.872;2024-03-08T00:42:06;20.97;;;14.83;;
13805;SDS011;6974;53.606;9.872;2024-03-08T00:44:33;19.73;;;14.50;;
13805;SDS011;6974;53.606;9.872;2024-03-08T00:47:00;20.60;;;13.90;;
13805;SDS011;6974;53.606;9.872;2024-03-08T00:49:29;21.60;;;14.60;;
13805;SDS011;6974;53.606;9.872;2024-03-08T00:51:56;19.17;;;14.10;;
13805;SDS011;6974;53.606;9.872;2024-03-08T00:54:23;19.07;;;14.63;;
13805;SDS011;6974;53.606;9.872;2024-03-08T00:56:50;20.63;;;14.80;;
13805;SDS011;6974;53.606;9.872;2024-03-08T00:59:17;20.33;;;14.47;;
13805;SDS011;6974;53.606;9.872;2024-03-08T01:01:43;20.20;;;14.97;;
13805;SDS011;6974;53.606;9.872;2024-03-08T01:04:10;19.33;;;14.53;;
13805;SDS011;6974;53.606;9.872;2024-03-08T01:06:38;19.40;;;14.53;;
13805;SDS011;6974;53.606;9.872;2024-03-08T01:09:05;24.80;;;15.73;;
13805;SDS011;6974;53.606;9.872;2024-03-08T01:11:34;18.87;;;14.50;;
13805;SDS011;6974;53.606;9.872;2024-03-08T01:14:01;16.77;;;14.07;;
13805;SDS011;6974;53.606;9.872;2024-03-08T01:16:28;20.80;;;13.87;;
13805;SDS011;6974;53.606;9.872;2024-03-08T01:18:54;20.90;;;14.77;;
13805;SDS011;6974;53.606;9.872;2024-03-08T01:21:21;20.77;;;15.07;;
13805;SDS011;6974;53.606;9.872;2024-03-08T01:23:49;20.17;;;14.10;;
13805;SDS011;6974;53.606;9.872;2024-03-08T01:26:16;19.77;;;14.33;;
13805;SDS011;6974;53.606;9.872;2024-03-08T01:28:43;18.50;;;13.87;;
13805;SDS011;6974;53.606;9.872;2024-03-08T01:31:10;18.43;;;14.23;;
13805;SDS011;6974;53.606;9.872;2024-03-08T01:33:37;20.23;;;14.17;;
13805;SDS011;6974;53.606;9.872;2024-03-08T01:36:05;20.63;;;14.50;;
13805;SDS011;6974;53.606;9.872;2024-03-08T01:38:32;19.37;;;14.87;;
13805;SDS011;6974;53.606;9.872;2024-03-08T01:41:02;20.03;;;15.37;;
13805;SDS011;6974;53.606;9.872;2024-03-08T01:43:29;20.40;;;14.60;;
13805;SDS011;6974;53.606;9.872;2024-03-08T01:45:56;19.27;;;13.70;;
13805;SDS011;6974;53.606;9.872;2024-03-08T01:48:24;19.90;;;13.90;;
13805;SDS011;6974;53.606;9.872;2024-03-08T01:50:52;19.00;;;14.17;;
13805;SDS011;6974;53.606;9.872;2024-03-08T01:53:20;22.07;;;13.47;;
13805;SDS011;6974;53.606;9.872;2024-03-08T01:55:48;19.03;;;13.27;;
13805;SDS011;6974;53.606;9.872;2024-03-08T01:58:17;18.73;;;13.87;;
13805;SDS011;6974;53.606;9.872;2024-03-08T02:00:45;19.63;;;14.63;;
13805;SDS011;6974;53.606;9.872;2024-03-08T02:03:14;18.93;;;14.10;;
13805;SDS011;6974;53.606;9.872;2024-03-08T02:05:41;18.93;;;13.83;;
13805;SDS011;6974;53.606;9.872;2024-03-08T02:08:08;21.47;;;14.60;;
13805;SDS011;6974;53.606;9.872;2024-03-08T02:10:39;18.10;;;13.60;;
13805;SDS011;6974;53.606;9.872;2024-03-08T02:13:06;20.63;;;14.93;;
13805;SDS011;6974;53.606;9.872;2024-03-08T02:15:54;18.30;;;13.00;;
13805;SDS011;6974;53.606;9.872;2024-03-08T02:18:22;19.83;;;14.00;;
13805;SDS011;6974;53.606;9.872;2024-03-08T02:20:51;23.57;;;14.90;;
13805;SDS011;6974;53.606;9.872;2024-03-08T02:23:18;19.53;;;13.90;;
13805;SDS011;6974;53.606;9.872;2024-03-08T02:25:45;20.30;;;14.20;;
13805;SDS011;6974;53.606;9.872;2024-03-08T02:28:12;19.27;;;14.67;;
13805;SDS011;6974;53.606;9.872;2024-03-08T02:30:40;19.83;;;14.40;;
13805;SDS011;6974;53.606;9.872;2024-03-08T02:33:07;19.33;;;14.23;;
13805;SDS011;6974;53.606;9.872;2024-03-08T02:35:34;21.17;;;14.80;;
13805;SDS011;6974;53.606;9.872;2024-03-08T02:38:03;19.23;;;13.77;;
13805;SDS011;6974;53.606;9.872;2024-03-08T02:40:30;18.20;;;13.47;;
13805;SDS011;6974;53.606;9.872;2024-03-08T02:42:57;19.33;;;14.37;;
13805;SDS011;6974;53.606;9.872;2024-03-08T02:45:24;18.83;;;14.97;;
13805;SDS011;6974;53.606;9.872;2024-03-08T02:47:51;19.40;;;14.07;;
13805;SDS011;6974;53.606;9.872;2024-03-08T02:50:18;21.47;;;15.27;;
13805;SDS011;6974;53.606;9.872;2024-03-08T02:52:44;17.70;;;13.37;;
13805;SDS011;6974;53.606;9.872;2024-03-08T02:55:13;22.43;;;16.17;;
13805;SDS011;6974;53.606;9.872;2024-03-08T02:57:41;21.23;;;14.20;;
13805;SDS011;6974;53.606;9.872;2024-03-08T03:00:09;20.20;;;15.07;;
13805;SDS011;6974;53.606;9.872;2024-03-08T03:02:37;25.00;;;15.47;;
13805;SDS011;6974;53.606;9.872;2024-03-08T03:05:04;22.03;;;15.20;;
13805;SDS011;6974;53.606;9.872;2024-03-08T03:07:32;21.90;;;15.10;;
13805;SDS011;6974;53.606;9.872;2024-03-08T03:09:59;20.77;;;15.07;;
13805;SDS011;6974;53.606;9.872;2024-03-08T03:12:28;23.40;;;15.57;;
13805;SDS011;6974;53.606;9.872;2024-03-08T03:14:55;21.50;;;14.23;;
13805;SDS011;6974;53.606;9.872;2024-03-08T03:17:22;24.40;;;16.03;;
13805;SDS011;6974;53.606;9.872;2024-03-08T03:19:49;21.80;;;15.87;;
13805;SDS011;6974;53.606;9.872;2024-03-08T03:22:16;20.13;;;15.43;;
13805;SDS011;6974;53.606;9.872;2024-03-08T03:24:43;18.53;;;14.53;;
13805;SDS011;6974;53.606;9.872;2024-03-08T03:27:11;21.57;;;14.33;;
13805;SDS011;6974;53.606;9.872;2024-03-08T03:29:40;20.40;;;14.60;;
13805;SDS011;6974;53.606;9.872;2024-03-08T03:32:10;21.13;;;14.87;;
13805;SDS011;6974;53.606;9.872;2024-03-08T03:34:37;19.27;;;14.63;;
13805;SDS011;6974;53.606;9.872;2024-03-08T03:37:04;21.60;;;15.93;;
13805;SDS011;6974;53.606;9.872;2024-03-08T03:39:33;20.50;;;14.17;;
13805;SDS011;6974;53.606;9.872;2024-03-08T03:42:05;20.30;;;15.37;;
13805;SDS011;6974;53.606;9.872;2024-03-08T03:44:32;22.43;;;14.97;;
13805;SDS011;6974;53.606;9.872;2024-03-08T03:47:00;22.03;;;14.53;;
13805;SDS011;6974;53.606;9.872;2024-03-08T03:49:27;19.40;;;14.60;;
13805;SDS011;6974;53.606;9.872;2024-03-08T03:51:54;22.97;;;15.83;;
13805;SDS011;6974;53.606;9.872;2024-03-08T03:54:21;23.80;;;16.23;;
13805;SDS011;6974;53.606;9.872;2024-03-08T03:56:48;22.03;;;15.70;;
13805;SDS011;6974;53.606;9.872;2024-03-08T03:59:17;24.63;;;16.07;;
13805;SDS011;6974;53.606;9.872;2024-03-08T04:01:45;21.27;;;14.83;;
13805;SDS011;6974;53.606;9.872;2024-03-08T04:04:15;22.53;;;15.50;;
13805;SDS011;6974;53.606;9.872;2024-03-08T04:06:42;20.40;;;15.00;;
13805;SDS011;6974;53.606;9.872;2024-03-08T04:09:10;20.77;;;14.73;;
13805;SDS011;6974;53.606;9.872;2024-03-08T04:11:37;23.33;;;15.70;;
13805;SDS011;6974;53.606;9.872;2024-03-08T04:14:04;21.03;;;15.03;;
13805;SDS011;6974;53.606;9.872;2024-03-08T04:16:31;21.40;;;15.07;;
13805;SDS011;6974;53.606;9.872;2024-03-08T04:18:58;23.17;;;15.30;;
13805;SDS011;6974;53.606;9.872;2024-03-08T04:21:26;21.37;;;15.37;;
13805;SDS011;6974;53.606;9.872;2024-03-08T04:23:52;19.97;;;15.13;;
13805;SDS011;6974;53.606;9.872;2024-03-08T04:26:19;22.27;;;15.33;;
13805;SDS011;6974;53.606;9.872;2024-03-08T04:28:46;20.47;;;14.90;;
13805;SDS011;6974;53.606;9.872;2024-03-08T04:31:13;23.80;;;15.17;;
13805;SDS011;6974;53.606;9.872;2024-03-08T04:33:40;18.93;;;14.80;;
13805;SDS011;6974;53.606;9.872;2024-03-08T04:36:07;23.70;;;15.43;;
13805;SDS011;6974;53.606;9.872;2024-03-08T04:38:40;19.37;;;14.27;;
13805;SDS011;6974;53.606;9.872;2024-03-08T04:41:07;22.27;;;14.93;;
13805;SDS011;6974;53.606;9.872;2024-03-08T04:43:33;20.37;;;15.30;;
13805;SDS011;6974;53.606;9.872;2024-03-08T04:46:01;25.03;;;15.87;;
13805;SDS011;6974;53.606;9.872;2024-03-08T04:48:28;20.70;;;14.70;;
13805;SDS011;6974;53.606;9.872;2024-03-08T04:50:55;19.77;;;14.57;;
13805;SDS011;6974;53.606;9.872;2024-03-08T04:53:22;20.50;;;15.27;;
13805;SDS011;6974;53.606;9.872;2024-03-08T04:55:50;23.30;;;15.70;;
13805;SDS011;6974;53.606;9.872;2024-03-08T04:58:17;22.17;;;15.17;;
13805;SDS011;6974;53.606;9.872;2024-03-08T05:00:45;21.20;;;15.27;;
13805;SDS011;6974;53.606;9.872;2024-03-08T05:03:13;24.20;;;15.57;;
13805;SDS011;6974;53.606;9.872;2024-03-08T05:05:39;21.27;;;14.90;;
13805;SDS011;6974;53.606;9.872;2024-03-08T05:08:06;22.77;;;15.87;;
13805;SDS011;6974;53.606;9.872;2024-03-08T05:10:33;24.40;;;16.30;;
13805;SDS011;6974;53.606;9.872;2024-03-08T05:13:01;21.57;;;14.53;;
13805;SDS011;6974;53.606;9.872;2024-03-08T05:15:28;22.80;;;14.60;;
13805;SDS011;6974;53.606;9.872;2024-03-08T05:17:55;24.27;;;15.93;;
13805;SDS011;6974;53.606;9.872;2024-03-08T05:20:22;21.07;;;14.67;;
13805;SDS011;6974;53.606;9.872;2024-03-08T05:22:49;21.97;;;16.03;;
13805;SDS011;6974;53.606;9.872;2024-03-08T05:25:16;23.93;;;16.17;;
13805;SDS011;6974;53.606;9.872;2024-03-08T05:27:43;20.93;;;15.20;;
13805;SDS011;6974;53.606;9.872;2024-03-08T05:30:13;20.77;;;15.53;;
13805;SDS011;6974;53.606;9.872;2024-03-08T05:32:40;26.00;;;16.37;;
13805;SDS011;6974;53.606;9.872;2024-03-08T05:35:09;27.07;;;16.80;;
13805;SDS011;6974;53.606;9.872;2024-03-08T05:37:37;22.00;;;15.50;;
13805;SDS011;6974;53.606;9.872;2024-03-08T05:40:04;22.67;;;16.13;;
13805;SDS011;6974;53.606;9.872;2024-03-08T05:42:34;22.97;;;15.37;;
13805;SDS011;6974;53.606;9.872;2024-03-08T05:45:01;20.83;;;14.43;;
13805;SDS011;6974;53.606;9.872;2024-03-08T05:47:29;23.30;;;15.67;;
13805;SDS011;6974;53.606;9.872;2024-03-08T05:49:56;22.47;;;15.57;;
13805;SDS011;6974;53.606;9.872;2024-03-08T05:52:23;19.60;;;14.40;;
13805;SDS011;6974;53.606;9.872;2024-03-08T05:54:51;23.47;;;15.43;;
13805;SDS011;6974;53.606;9.872;2024-03-08T05:57:18;21.77;;;15.03;;
13805;SDS011;6974;53.606;9.872;2024-03-08T05:59:45;22.93;;;15.33;;
13805;SDS011;6974;53.606;9.872;2024-03-08T06:02:13;24.03;;;16.83;;
13805;SDS011;6974;53.606;9.872;2024-03-08T06:04:45;19.07;;;14.77;;
13805;SDS011;6974;53.606;9.872;2024-03-08T06:07:12;22.03;;;14.87;;
13805;SDS011;6974;53.606;9.872;2024-03-08T06:09:39;22.53;;;14.93;;
13805;SDS011;6974;53.606;9.872;2024-03-08T06:12:05;23.07;;;15.00;;
13805;SDS011;6974;53.606;9.872;2024-03-08T06:14:35;26.23;;;15.93;;
13805;SDS011;6974;53.606;9.872;2024-03-08T06:17:02;24.63;;;15.60;;
13805;SDS011;6974;53.606;9.872;2024-03-08T06:19:32;22.90;;;15.33;;
13805;SDS011;6974;53.606;9.872;2024-03-08T06:22:00;23.53;;;15.10;;
13805;SDS011;6974;53.606;9.872;2024-03-08T06:24:30;21.00;;;15.10;;
13805;SDS011;6974;53.606;9.872;2024-03-08T06:26:57;25.17;;;15.73;;
13805;SDS011;6974;53.606;9.872;2024-03-08T06:29:24;20.97;;;15.33;;
13805;SDS011;6974;53.606;9.872;2024-03-08T06:31:51;26.53;;;15.97;;
13805;SDS011;6974;53.606;9.872;2024-03-08T06:34:18;28.10;;;18.27;;
13805;SDS011;6974;53.606;9.872;2024-03-08T06:36:45;22.33;;;15.23;;
13805;SDS011;6974;53.606;9.872;2024-03-08T06:39:13;21.63;;;16.80;;
13805;SDS011;6974;53.606;9.872;2024-03-08T06:41:40;23.27;;;15.03;;
13805;SDS011;6974;53.606;9.872;2024-03-08T06:44:09;23.17;;;15.67;;
13805;SDS011;6974;53.606;9.872;2024-03-08T06:46:36;22.70;;;14.97;;
13805;SDS011;6974;53.606;9.872;2024-03-08T06:49:03;26.27;;;15.47;;
13805;SDS011;6974;53.606;9.872;2024-03-08T06:51:32;24.27;;;15.70;;
13805;SDS011;6974;53.606;9.872;2024-03-08T06:53:59;22.23;;;15.83;;
13805;SDS011;6974;53.606;9.872;2024-03-08T06:56:27;22.80;;;16.00;;
13805;SDS011;6974;53.606;9.872;2024-03-08T06:58:54;22.07;;;16.20;;
13805;SDS011;6974;53.606;9.872;2024-03-08T07:01:21;28.37;;;18.13;;
13805;SDS011;6974;53.606;9.872;2024-03-08T07:03:48;30.70;;;20.23;;
13805;SDS011;6974;53.606;9.872;2024-03-08T07:06:15;23.63;;;17.23;;
13805;SDS011;6974;53.606;9.872;2024-03-08T07:08:44;25.90;;;17.37;;
13805;SDS011;6974;53.606;9.872;2024-03-08T07:11:11;25.27;;;16.93;;
13805;SDS011;6974;53.606;9.872;2024-03-08T07:13:44;25.50;;;17.73;;
13805;SDS011;6974;53.606;9.872;2024-03-08T07:16:11;26.40;;;17.73;;
13805;SDS011;6974;53.606;9.872;2024-03-08T07:18:38;27.90;;;17.70;;
13805;SDS011;6974;53.606;9.872;2024-03-08T07:21:08;27.33;;;18.63;;
13805;SDS011;6974;53.606;9.872;2024-03-08T07:23:35;28.77;;;18.13;;
13805;SDS011;6974;53.606;9.872;2024-03-08T07:26:28;25.70;;;18.57;;
13805;SDS011;6974;53.606;9.872;2024-03-08T07:28:56;26.43;;;18.30;;
13805;SDS011;6974;53.606;9.872;2024-03-08T07:31:25;29.03;;;18.93;;
13805;SDS011;6974;53.606;9.872;2024-03-08T07:34:03;26.87;;;19.13;;
13805;SDS011;6974;53.606;9.872;2024-03-08T07:36:32;25.97;;;18.87;;
13805;SDS011;6974;53.606;9.872;2024-03-08T07:39:00;28.60;;;18.97;;
13805;SDS011;6974;53.606;9.872;2024-03-08T07:41:26;28.27;;;19.83;;
13805;SDS011;6974;53.606;9.872;2024-03-08T07:43:54;30.07;;;19.27;;
13805;SDS011;6974;53.606;9.872;2024-03-08T07:46:22;27.90;;;19.73;;
13805;SDS011;6974;53.606;9.872;2024-03-08T07:48:49;29.33;;;19.90;;
13805;SDS011;6974;53.606;9.872;2024-03-08T07:51:16;27.23;;;18.63;;
13805;SDS011;6974;53.606;9.872;2024-03-08T07:53:43;27.70;;;18.80;;
13805;SDS011;6974;53.606;9.872;2024-03-08T07:56:10;28.30;;;19.93;;
13805;SDS011;6974;53.606;9.872;2024-03-08T07:58:38;30.00;;;19.67;;
13805;SDS011;6974;53.606;9.872;2024-03-08T08:01:06;30.20;;;21.00;;
13805;SDS011;6974;53.606;9.872;2024-03-08T08:03:35;27.37;;;19.77;;
13805;SDS011;6974;53.606;9.872;2024-03-08T08:06:03;25.23;;;18.50;;
13805;SDS011;6974;53.606;9.872;2024-03-08T08:08:30;26.30;;;19.03;;
13805;SDS011;6974;53.606;9.872;2024-03-08T08:10:57;30.70;;;20.60;;
13805;SDS011;6974;53.606;9.872;2024-03-08T08:13:24;29.20;;;19.83;;
13805;SDS011;6974;53.606;9.872;2024-03-08T08:15:52;29.47;;;19.50;;
13805;SDS011;6974;53.606;9.872;2024-03-08T08:18:19;26.57;;;19.57;;
13805;SDS011;6974;53.606;9.872;2024-03-08T08:20:51;27.00;;;18.77;;
13805;SDS011;6974;53.606;9.872;2024-03-08T08:23:18;31.30;;;20.00;;
13805;SDS011;6974;53.606;9.872;2024-03-08T08:25:45;28.20;;;20.13;;
13805;SDS011;6974;53.606;9.872;2024-03-08T08:28:15;31.67;;;21.50;;
13805;SDS011;6974;53.606;9.872;2024-03-08T08:30:42;29.47;;;20.43;;
13805;SDS011;6974;53.606;9.872;2024-03-08T08:33:09;26.60;;;20.10;;
13805;SDS011;6974;53.606;9.872;2024-03-08T08:35:36;29.40;;;20.30;;
13805;SDS011;6974;53.606;9.872;2024-03-08T08:38:05;30.20;;;20.97;;
13805;SDS011;6974;53.606;9.872;2024-03-08T08:40:32;30.37;;;20.40;;
13805;SDS011;6974;53.606;9.872;2024-03-08T08:43:01;29.57;;;20.80;;
13805;SDS011;6974;53.606;9.872;2024-03-08T08:45:29;28.00;;;19.73;;
13805;SDS011;6974;53.606;9.872;2024-03-08T08:47:56;28.53;;;20.30;;
13805;SDS011;6974;53.606;9.872;2024-03-08T08:50:24;27.40;;;20.60;;
13805;SDS011;6974;53.606;9.872;2024-03-08T08:52:53;31.43;;;21.43;;
13805;SDS011;6974;53.606;9.872;2024-03-08T08:55:21;29.17;;;20.90;;
13805;SDS011;6974;53.606;9.872;2024-03-08T08:57:50;30.40;;;20.43;;
13805;SDS011;6974;53.606;9.872;2024-03-08T09:00:18;27.00;;;19.43;;
13805;SDS011;6974;53.606;9.872;2024-03-08T09:02:45;29.43;;;20.20;;
13805;SDS011;6974;53.606;9.872;2024-03-08T09:05:13;29.90;;;20.40;;
13805;SDS011;6974;53.606;9.872;2024-03-08T09:07:41;28.67;;;20.97;;
13805;SDS011;6974;53.606;9.872;2024-03-08T09:10:09;32.87;;;21.03;;
13805;SDS011;6974;53.606;9.872;2024-03-08T09:12:38;29.50;;;19.80;;
13805;SDS011;6974;53.606;9.872;2024-03-08T09:15:05;30.03;;;20.73;;
13805;SDS011;6974;53.606;9.872;2024-03-08T09:17:36;24.37;;;19.10;;
13805;SDS011;6974;53.606;9.872;2024-03-08T09:20:05;30.43;;;20.17;;
13805;SDS011;6974;53.606;9.872;2024-03-08T09:22:33;30.83;;;22.20;;
13805;SDS011;6974;53.606;9.872;2024-03-08T09:25:00;27.83;;;19.77;;
13805;SDS011;6974;53.606;9.872;2024-03-08T09:27:30;27.13;;;20.20;;
13805;SDS011;6974;53.606;9.872;2024-03-08T09:29:58;28.60;;;20.50;;
13805;SDS011;6974;53.606;9.872;2024-03-08T09:32:25;27.60;;;20.57;;
13805;SDS011;6974;53.606;9.872;2024-03-08T09:34:52;29.20;;;20.40;;
13805;SDS011;6974;53.606;9.872;2024-03-08T09:37:19;26.23;;;19.57;;
13805;SDS011;6974;53.606;9.872;2024-03-08T09:39:45;27.60;;;19.93;;
13805;SDS011;6974;53.606;9.872;2024-03-08T09:42:13;28.07;;;20.07;;
13805;SDS011;6974;53.606;9.872;2024-03-08T09:44:43;28.40;;;19.73;;
13805;SDS011;6974;53.606;9.872;2024-03-08T09:47:13;25.57;;;18.83;;
13805;SDS011;6974;53.606;9.872;2024-03-08T09:49:40;25.47;;;19.60;;
13805;SDS011;6974;53.606;9.872;2024-03-08T09:52:08;28.73;;;19.60;;
13805;SDS011;6974;53.606;9.872;2024-03-08T09:54:35;26.70;;;19.40;;
13805;SDS011;6974;53.606;9.872;2024-03-08T09:57:03;25.40;;;19.53;;
13805;SDS011;6974;53.606;9.872;2024-03-08T09:59:30;29.03;;;19.50;;
13805;SDS011;6974;53.606;9.872;2024-03-08T10:02:15;26.33;;;18.87;;
13805;SDS011;6974;53.606;9.872;2024-03-08T10:04:43;22.80;;;18.43;;
13805;SDS011;6974;53.606;9.872;2024-03-08T10:07:12;26.50;;;18.67;;
13805;SDS011;6974;53.606;9.872;2024-03-08T10:09:39;25.27;;;18.87;;
13805;SDS011;6974;53.606;9.872;2024-03-08T10:12:07;24.23;;;19.00;;
13805;SDS011;6974;53.606;9.872;2024-03-08T10:14:38;25.30;;;18.40;;
13805;SDS011;6974;53.606;9.872;2024-03-08T10:19:50;24.37;;;17.47;;
13805;SDS011;6974;53.606;9.872;2024-03-08T10:22:18;26.20;;;18.53;;
13805;SDS011;6974;53.606;9.872;2024-03-08T10:24:45;24.63;;;18.80;;
13805;SDS011;6974;53.606;9.872;2024-03-08T10:27:12;22.53;;;19.00;;
13805;SDS011;6974;53.606;9.872;2024-03-08T10:29:41;24.27;;;17.73;;
13805;SDS011;6974;53.606;9.872;2024-03-08T10:32:09;23.53;;;18.03;;
13805;SDS011;6974;53.606;9.872;2024-03-08T10:34:37;24.07;;;18.40;;
13805;SDS011;6974;53.606;9.872;2024-03-08T10:37:05;23.20;;;18.53;;
13805;SDS011;6974;53.606;9.872;2024-03-08T10:39:38;24.07;;;17.90;;
13805;SDS011;6974;53.606;9.872;2024-03-08T10:42:08;22.40;;;16.53;;
13805;SDS011;6974;53.606;9.872;2024-03-08T10:44:46;23.80;;;17.20;;
13805;SDS011;6974;53.606;9.872;2024-03-08T10:47:22;19.90;;;16.83;;
13805;SDS011;6974;53.606;9.872;2024-03-08T10:49:55;22.17;;;16.40;;
13805;SDS011;6974;53.606;9.872;2024-03-08T10:52:33;20.63;;;16.07;;
13805;SDS011;6974;53.606;9.872;2024-03-08T10:55:02;20.23;;;15.13;;
13805;SDS011;6974;53.606;9.872;2024-03-08T10:57:29;22.03;;;15.87;;
13805;SDS011;6974;53.606;9.872;2024-03-08T10:59:56;20.40;;;15.53;;
13805;SDS011;6974;53.606;9.872;2024-03-08T11:02:24;21.63;;;15.97;;
13805;SDS011;6974;53.606;9.872;2024-03-08T11:04:53;19.47;;;15.70;;
13805;SDS011;6974;53.606;9.872;2024-03-08T11:07:21;25.30;;;16.57;;
13805;SDS011;6974;53.606;9.872;2024-03-08T11:09:49;21.77;;;15.97;;
13805;SDS011;6974;53.606;9.872;2024-03-08T11:12:23;21.57;;;15.17;;
13805;SDS011;6974;53.606;9.872;2024-03-08T11:14:54;20.07;;;15.87;;
13805;SDS011;6974;53.606;9.872;2024-03-08T11:17:25;19.50;;;14.60;;
13805;SDS011;6974;53.606;9.872;2024-03-08T11:20:09;23.37;;;16.13;;
13805;SDS011;6974;53.606;9.872;2024-03-08T11:22:40;21.60;;;15.10;;
13805;SDS011;6974;53.606;9.872;2024-03-08T11:25:30;20.27;;;15.30;;
13805;SDS011;6974;53.606;9.872;2024-03-08T11:28:08;23.87;;;15.30;;
13805;SDS011;6974;53.606;9.872;2024-03-08T11:30:41;18.53;;;15.03;;
13805;SDS011;6974;53.606;9.872;2024-03-08T11:33:13;19.70;;;14.23;;
13805;SDS011;6974;53.606;9.872;2024-03-08T11:35:41;19.40;;;15.13;;
13805;SDS011;6974;53.606;9.872;2024-03-08T11:38:11;21.27;;;15.23;;
13805;SDS011;6974;53.606;9.872;2024-03-08T11:40:39;19.17;;;14.97;;
13805;SDS011;6974;53.606;9.872;2024-03-08T11:43:07;19.90;;;14.87;;
13805;SDS011;6974;53.606;9.872;2024-03-08T11:45:34;20.40;;;15.97;;
13805;SDS011;6974;53.606;9.872;2024-03-08T11:48:02;21.20;;;14.97;;
13805;SDS011;6974;53.606;9.872;2024-03-08T11:50:30;18.90;;;15.90;;
13805;SDS011;6974;53.606;9.872;2024-03-08T11:53:01;19.00;;;14.63;;
13805;SDS011;6974;53.606;9.872;2024-03-08T11:55:29;18.23;;;13.53;;
13805;SDS011;6974;53.606;9.872;2024-03-08T11:58:02;20.27;;;15.40;;
13805;SDS011;6974;53.606;9.872;2024-03-08T12:00:29;17.83;;;13.70;;
13805;SDS011;6974;53.606;9.872;2024-03-08T12:03:03;17.60;;;13.53;;
13805;SDS011;6974;53.606;9.872;2024-03-08T12:05:31;21.60;;;15.30;;
13805;SDS011;6974;53.606;9.872;2024-03-08T12:07:59;18.37;;;14.00;;
13805;SDS011;6974;53.606;9.872;2024-03-08T12:10:27;16.93;;;13.63;;
13805;SDS011;6974;53.606;9.872;2024-03-08T12:12:54;16.63;;;12.97;;
13805;SDS011;6974;53.606;9.872;2024-03-08T12:15:25;19.70;;;14.57;;
13805;SDS011;6974;53.606;9.872;2024-03-08T12:17:53;18.73;;;14.40;;
13805;SDS011;6974;53.606;9.872;2024-03-08T12:20:22;19.70;;;14.10;;
13805;SDS011;6974;53.606;9.872;2024-03-08T12:22:50;19.57;;;14.47;;
13805;SDS011;6974;53.606;9.872;2024-03-08T12:25:19;17.83;;;13.83;;
13805;SDS011;6974;53.606;9.872;2024-03-08T12:27:46;21.97;;;16.17;;
13805;SDS011;6974;53.606;9.872;2024-03-08T12:30:17;20.27;;;13.50;;
13805;SDS011;6974;53.606;9.872;2024-03-08T12:32:48;18.43;;;14.20;;
13805;SDS011;6974;53.606;9.872;2024-03-08T12:35:18;20.20;;;13.63;;
13805;SDS011;6974;53.606;9.872;2024-03-08T12:37:48;17.30;;;13.60;;
13805;SDS011;6974;53.606;9.872;2024-03-08T12:40:16;21.70;;;14.43;;
13805;SDS011;6974;53.606;9.872;2024-03-08T12:42:43;17.80;;;14.40;;
13805;SDS011;6974;53.606;9.872;2024-03-08T12:45:12;18.23;;;13.73;;
13805;SDS011;6974;53.606;9.872;2024-03-08T12:47:39;17.70;;;14.00;;
13805;SDS011;6974;53.606;9.872;2024-03-08T12:50:09;16.53;;;13.23;;
13805;SDS011;6974;53.606;9.872;2024-03-08T12:52:36;18.97;;;13.83;;
13805;SDS011;6974;53.606;9.872;2024-03-08T12:55:04;20.07;;;14.00;;
13805;SDS011;6974;53.606;9.872;2024-03-08T12:57:34;14.83;;;12.27;;
13805;SDS011;6974;53.606;9.872;2024-03-08T13:00:03;17.30;;;13.23;;
13805;SDS011;6974;53.606;9.872;2024-03-08T13:02:37;18.47;;;13.43;;
13805;SDS011;6974;53.606;9.872;2024-03-08T13:05:05;18.10;;;13.00;;
13805;SDS011;6974;53.606;9.872;2024-03-08T13:07:36;18.50;;;13.53;;
13805;SDS011;6974;53.606;9.872;2024-03-08T13:10:03;18.90;;;13.20;;
13805;SDS011;6974;53.606;9.872;2024-03-08T13:12:32;17.90;;;12.57;;
13805;SDS011;6974;53.606;9.872;2024-03-08T13:15:00;18.07;;;13.93;;
13805;SDS011;6974;53.606;9.872;2024-03-08T13:17:28;15.13;;;12.83;;
13805;SDS011;6974;53.606;9.872;2024-03-08T13:19:55;17.20;;;13.17;;
13805;SDS011;6974;53.606;9.872;2024-03-08T13:22:24;17.80;;;13.53;;
13805;SDS011;6974;53.606;9.872;2024-03-08T13:24:54;17.37;;;12.77;;
13805;SDS011;6974;53.606;9.872;2024-03-08T13:27:21;18.80;;;14.23;;
13805;SDS011;6974;53.606;9.872;2024-03-08T13:29:50;16.83;;;13.37;;
13805;SDS011;6974;53.606;9.872;2024-03-08T13:32:17;17.67;;;13.00;;
13805;SDS011;6974;53.606;9.872;2024-03-08T13:34:45;19.07;;;13.37;;
13805;SDS011;6974;53.606;9.872;2024-03-08T13:37:13;17.60;;;13.60;;
13805;SDS011;6974;53.606;9.872;2024-03-08T13:39:41;20.37;;;13.93;;
13805;SDS011;6974;53.606;9.872;2024-03-08T13:42:10;16.40;;;13.43;;
13805;SDS011;6974;53.606;9.872;2024-03-08T13:44:43;16.90;;;13.00;;
13805;SDS011;6974;53.606;9.872;2024-03-08T13:47:10;17.30;;;13.10;;
13805;SDS011;6974;53.606;9.872;2024-03-08T13:49:38;16.03;;;12.43;;
13805;SDS011;6974;53.606;9.872;2024-03-08T13:52:08;16.13;;;12.30;;
13805;SDS011;6974;53.606;9.872;2024-03-08T13:54:35;17.73;;;12.60;;
13805;SDS011;6974;53.606;9.872;2024-03-08T13:57:03;15.93;;;11.93;;
13805;SDS011;6974;53.606;9.872;2024-03-08T13:59:33;16.63;;;11.93;;
13805;SDS011;6974;53.606;9.872;2024-03-08T14:02:00;15.13;;;12.17;;
13805;SDS011;6974;53.606;9.872;2024-03-08T14:04:27;15.70;;;12.30;;
13805;SDS011;6974;53.606;9.872;2024-03-08T14:06:54;14.93;;;11.93;;
13805;SDS011;6974;53.606;9.872;2024-03-08T14:09:26;14.93;;;11.80;;
13805;SDS011;6974;53.606;9.872;2024-03-08T14:11:54;15.67;;;11.67;;
13805;SDS011;6974;53.606;9.872;2024-03-08T14:14:21;16.33;;;12.77;;
13805;SDS011;6974;53.606;9.872;2024-03-08T14:16:49;14.73;;;12.23;;
13805;SDS011;6974;53.606;9.872;2024-03-08T14:19:18;16.83;;;12.47;;
13805;SDS011;6974;53.606;9.872;2024-03-08T14:21:45;16.07;;;12.77;;
13805;SDS011;6974;53.606;9.872;2024-03-08T14:24:13;16.57;;;12.90;;
13805;SDS011;6974;53.606;9.872;2024-03-08T14:26:40;15.27;;;12.40;;
13805;SDS011;6974;53.606;9.872;2024-03-08T14:29:07;16.97;;;13.57;;
13805;SDS011;6974;53.606;9.872;2024-03-08T14:31:35;16.40;;;12.40;;
13805;SDS011;6974;53.606;9.872;2024-03-08T14:34:03;17.67;;;13.40;;
13805;SDS011;6974;53.606;9.872;2024-03-08T14:36:30;16.33;;;12.07;;
13805;SDS011;6974;53.606;9.872;2024-03-08T14:38:57;17.30;;;12.77;;
13805;SDS011;6974;53.606;9.872;2024-03-08T14:41:24;17.63;;;12.40;;